sensor_id;sensor_type;location;lat;lon;timestamp;temperature;humidity
29501;DHT22;16450;50.288;10.966;2024-03-17T00:00:25;5.70;99.90
29501;DHT22;16450;50.288;10.966;2024-03-17T00:03:26;5.60;99.90
29501;DHT22;16450;50.288;10.966;2024-03-17T00:06:26;5.70;99.90
29501;DHT22;16450;50.288;10.966;2024-03-17T00:09:27;5.60;99.90
29501;DHT22;16450;50.288;10.966;2024-03-17T00:12:28;5.60;99.90
29501;DHT22;16450;50.288;10.966;2024-03-17T00:15:29;5.60;99.90
29501;DHT22;16450;50.288;10.966;2024-03-17T00:18:30;5.70;99.90
29501;DHT22;16450;50.288;10.966;2024-03-17T00:21:31;5.70;99.90
29501;DHT22;16450;50.288;10.966;2024-03-17T00:24:32;5.70;99.90
29501;DHT22;16450;50.288;10.966;2024-03-17T00:27:35;5.70;99.90
29501;DHT22;16450;50.288;10.966;2024-03-17T00:30:40;5.70;99.90
29501;DHT22;16450;50.288;10.966;2024-03-17T00:33:42;5.70;99.90
29501;DHT22;16450;50.288;10.966;2024-03-17T00:36:43;5.70;99.90
29501;DHT22;16450;50.288;10.966;2024-03-17T00:39:44;5.70;99.90
29501;DHT22;16450;50.288;10.966;2024-03-17T00:42:45;5.70;99.90
29501;DHT22;16450;50.288;10.966;2024-03-17T00:45:52;5.60;99.90
29501;DHT22;16450;50.288;10.966;2024-03-17T00:48:53;5.70;99.90
29501;DHT22;16450;50.288;10.966;2024-03-17T00:51:54;5.70;99.90
29501;DHT22;16450;50.288;10.966;2024-03-17T00:54:55;5.70;99.90
29501;DHT22;16450;50.288;10.966;2024-03-17T00:57:56;5.70;99.90
29501;DHT22;16450;50.288;10.966;2024-03-17T01:00:58;5.60;99.90
29501;DHT22;16450;50.288;10.966;2024-03-17T01:03:58;5.70;99.90
29501;DHT22;16450;50.288;10.966;2024-03-17T01:07:00;5.60;99.90
29501;DHT22;16450;50.288;10.966;2024-03-17T01:10:01;5.60;99.90
29501;DHT22;16450;50.288;10.966;2024-03-17T01:13:02;5.60;99.90
29501;DHT22;16450;50.288;10.966;2024-03-17T01:16:03;5.70;99.90
29501;DHT22;16450;50.288;10.966;2024-03-17T01:19:04;5.60;99.90
29501;DHT22;16450;50.288;10.966;2024-03-17T01:22:05;5.60;99.90
29501;DHT22;16450;50.288;10.966;2024-03-17T01:25:06;5.60;99.90
29501;DHT22;16450;50.288;10.966;2024-03-17T01:28:09;5.60;99.90
29501;DHT22;16450;50.288;10.966;2024-03-17T01:31:10;5.60;99.90
29501;DHT22;16450;50.288;10.966;2024-03-17T01:34:11;5.60;99.90
29501;DHT22;16450;50.288;10.966;2024-03-17T01:37:12;5.60;99.90
29501;DHT22;16450;50.288;10.966;2024-03-17T01:40:12;5.50;99.90
29501;DHT22;16450;50.288;10.966;2024-03-17T01:43:13;5.50;99.90
29501;DHT22;16450;50.288;10.966;2024-03-17T01:46:15;5.50;99.90
29501;DHT22;16450;50.288;10.966;2024-03-17T01:49:17;5.50;99.90
29501;DHT22;16450;50.288;10.966;2024-03-17T01:52:20;5.50;99.90
29501;DHT22;16450;50.288;10.966;2024-03-17T01:55:21;5.40;99.90
29501;DHT22;16450;50.288;10.966;2024-03-17T01:58:25;5.40;99.90
29501;DHT22;16450;50.288;10.966;2024-03-17T02:01:26;5.40;99.90
29501;DHT22;16450;50.288;10.966;2024-03-17T02:04:26;5.40;99.90
29501;DHT22;16450;50.288;10.966;2024-03-17T02:07:27;5.40;99.90
29501;DHT22;16450;50.288;10.966;2024-03-17T02:10:28;5.40;99.90
29501;DHT22;16450;50.288;10.966;2024-03-17T02:13:29;5.30;99.90
29501;DHT22;16450;50.288;10.966;2024-03-17T02:16:30;5.30;99.90
29501;DHT22;16450;50.288;10.966;2024-03-17T02:19:31;5.30;99.90
29501;DHT22;16450;50.288;10.966;2024-03-17T02:22:32;5.30;99.90
29501;DHT22;16450;50.288;10.966;2024-03-17T02:25:32;5.30;99.90
29501;DHT22;16450;50.288;10.966;2024-03-17T02:28:43;5.30;99.90
29501;DHT22;16450;50.288;10.966;2024-03-17T02:31:45;5.20;99.90
29501;DHT22;16450;50.288;10.966;2024-03-17T02:34:46;5.20;99.90
29501;DHT22;16450;50.288;10.966;2024-03-17T02:37:48;5.20;99.90
29501;DHT22;16450;50.288;10.966;2024-03-17T02:40:52;5.20;99.90
29501;DHT22;16450;50.288;10.966;2024-03-17T02:43:53;5.20;99.90
29501;DHT22;16450;50.288;10.966;2024-03-17T02:46:53;5.20;99.90
29501;DHT22;16450;50.288;10.966;2024-03-17T02:49:54;5.20;99.90
29501;DHT22;16450;50.288;10.966;2024-03-17T02:52:55;5.10;99.90
29501;DHT22;16450;50.288;10.966;2024-03-17T02:55:56;5.20;99.90
29501;DHT22;16450;50.288;10.966;2024-03-17T02:58:57;5.10;99.90
29501;DHT22;16450;50.288;10.966;2024-03-17T03:01:58;5.10;99.90
29501;DHT22;16450;50.288;10.966;2024-03-17T03:04:59;5.10;99.90
29501;DHT22;16450;50.288;10.966;2024-03-17T03:08:00;5.10;99.90
29501;DHT22;16450;50.288;10.966;2024-03-17T03:11:01;5.00;99.90
29501;DHT22;16450;50.288;10.966;2024-03-17T03:14:02;5.00;99.90
29501;DHT22;16450;50.288;10.966;2024-03-17T03:17:03;5.00;99.90
29501;DHT22;16450;50.288;10.966;2024-03-17T03:20:04;5.00;99.90
29501;DHT22;16450;50.288;10.966;2024-03-17T03:23:06;4.90;99.90
29501;DHT22;16450;50.288;10.966;2024-03-17T03:26:07;4.90;99.90
29501;DHT22;16450;50.288;10.966;2024-03-17T03:29:10;4.90;99.90
29501;DHT22;16450;50.288;10.966;2024-03-17T03:32:11;4.80;99.90
29501;DHT22;16450;50.288;10.966;2024-03-17T03:35:12;4.80;99.90
29501;DHT22;16450;50.288;10.966;2024-03-17T03:38:13;4.80;99.90
29501;DHT22;16450;50.288;10.966;2024-03-17T03:41:15;4.80;99.90
29501;DHT22;16450;50.288;10.966;2024-03-17T03:44:16;4.70;99.90
29501;DHT22;16450;50.288;10.966;2024-03-17T03:47:17;4.70;99.90
29501;DHT22;16450;50.288;10.966;2024-03-17T03:50:20;4.60;99.90
29501;DHT22;16450;50.288;10.966;2024-03-17T03:53:21;4.60;99.90
29501;DHT22;16450;50.288;10.966;2024-03-17T03:56:23;4.60;99.90
29501;DHT22;16450;50.288;10.966;2024-03-17T03:59:24;4.60;99.90
29501;DHT22;16450;50.288;10.966;2024-03-17T04:02:25;4.50;99.90
29501;DHT22;16450;50.288;10.966;2024-03-17T04:05:32;4.50;99.90
29501;DHT22;16450;50.288;10.966;2024-03-17T04:08:33;4.40;99.90
29501;DHT22;16450;50.288;10.966;2024-03-17T04:11:35;4.30;99.90
29501;DHT22;16450;50.288;10.966;2024-03-17T04:14:36;4.30;99.90
29501;DHT22;16450;50.288;10.966;2024-03-17T04:17:37;4.20;99.90
29501;DHT22;16450;50.288;10.966;2024-03-17T04:20:40;4.10;99.90
29501;DHT22;16450;50.288;10.966;2024-03-17T04:23:41;4.00;99.90
29501;DHT22;16450;50.288;10.966;2024-03-17T04:26:42;4.00;99.90
29501;DHT22;16450;50.288;10.966;2024-03-17T04:29:46;3.90;99.90
29501;DHT22;16450;50.288;10.966;2024-03-17T04:32:48;3.80;99.90
29501;DHT22;16450;50.288;10.966;2024-03-17T04:35:49;3.70;99.90
29501;DHT22;16450;50.288;10.966;2024-03-17T04:38:50;3.70;99.90
29501;DHT22;16450;50.288;10.966;2024-03-17T04:41:52;3.60;99.90
29501;DHT22;16450;50.288;10.966;2024-03-17T04:44:53;3.60;99.90
29501;DHT22;16450;50.288;10.966;2024-03-17T04:47:54;3.50;99.90
29501;DHT22;16450;50.288;10.966;2024-03-17T04:50:56;3.50;99.90
29501;DHT22;16450;50.288;10.966;2024-03-17T04:53:56;3.40;99.90
29501;DHT22;16450;50.288;10.966;2024-03-17T04:56:57;3.40;99.90
29501;DHT22;16450;50.288;10.966;2024-03-17T04:59:58;3.40;99.90
29501;DHT22;16450;50.288;10.966;2024-03-17T05:02:59;3.40;99.90
29501;DHT22;16450;50.288;10.966;2024-03-17T05:06:02;3.40;99.90
29501;DHT22;16450;50.288;10.966;2024-03-17T05:09:03;3.40;99.90
29501;DHT22;16450;50.288;10.966;2024-03-17T05:12:06;3.40;99.90
29501;DHT22;16450;50.288;10.966;2024-03-17T05:15:08;3.40;99.90
29501;DHT22;16450;50.288;10.966;2024-03-17T05:18:09;3.30;99.90
29501;DHT22;16450;50.288;10.966;2024-03-17T05:21:10;3.40;99.90
29501;DHT22;16450;50.288;10.966;2024-03-17T05:24:11;3.30;99.90
29501;DHT22;16450;50.288;10.966;2024-03-17T05:27:16;3.30;99.90
29501;DHT22;16450;50.288;10.966;2024-03-17T05:30:17;3.30;99.90
29501;DHT22;16450;50.288;10.966;2024-03-17T05:33:20;3.30;99.90
29501;DHT22;16450;50.288;10.966;2024-03-17T05:36:22;3.20;99.90
29501;DHT22;16450;50.288;10.966;2024-03-17T05:39:23;3.20;99.90
29501;DHT22;16450;50.288;10.966;2024-03-17T05:42:24;3.20;99.90
29501;DHT22;16450;50.288;10.966;2024-03-17T05:45:25;3.20;99.90
29501;DHT22;16450;50.288;10.966;2024-03-17T05:48:30;3.20;99.90
29501;DHT22;16450;50.288;10.966;2024-03-17T05:51:31;3.20;99.90
29501;DHT22;16450;50.288;10.966;2024-03-17T05:54:32;3.20;99.90
29501;DHT22;16450;50.288;10.966;2024-03-17T05:57:33;3.20;99.90
29501;DHT22;16450;50.288;10.966;2024-03-17T06:00:39;3.20;99.90
29501;DHT22;16450;50.288;10.966;2024-03-17T06:03:40;3.30;99.90
29501;DHT22;16450;50.288;10.966;2024-03-17T06:06:42;3.30;99.90
29501;DHT22;16450;50.288;10.966;2024-03-17T06:09:42;3.30;99.90
29501;DHT22;16450;50.288;10.966;2024-03-17T06:12:43;3.30;99.90
29501;DHT22;16450;50.288;10.966;2024-03-17T06:15:45;3.40;99.90
29501;DHT22;16450;50.288;10.966;2024-03-17T06:18:47;3.40;99.90
29501;DHT22;16450;50.288;10.966;2024-03-17T06:21:51;3.40;99.90
29501;DHT22;16450;50.288;10.966;2024-03-17T06:24:52;3.50;99.90
29501;DHT22;16450;50.288;10.966;2024-03-17T06:27:53;3.50;99.90
29501;DHT22;16450;50.288;10.966;2024-03-17T06:30:56;3.50;99.90
29501;DHT22;16450;50.288;10.966;2024-03-17T06:34:00;3.60;99.90
29501;DHT22;16450;50.288;10.966;2024-03-17T06:37:00;3.60;99.90
29501;DHT22;16450;50.288;10.966;2024-03-17T06:40:05;3.70;99.90
29501;DHT22;16450;50.288;10.966;2024-03-17T06:43:06;3.70;99.90
29501;DHT22;16450;50.288;10.966;2024-03-17T06:46:08;3.80;99.90
29501;DHT22;16450;50.288;10.966;2024-03-17T06:49:09;3.90;99.90
29501;DHT22;16450;50.288;10.966;2024-03-17T06:52:10;3.90;99.90
29501;DHT22;16450;50.288;10.966;2024-03-17T06:55:11;4.00;99.90
29501;DHT22;16450;50.288;10.966;2024-03-17T06:58:13;4.00;99.90
29501;DHT22;16450;50.288;10.966;2024-03-17T07:01:13;4.10;99.90
29501;DHT22;16450;50.288;10.966;2024-03-17T07:04:14;4.20;99.90
29501;DHT22;16450;50.288;10.966;2024-03-17T07:07:16;4.30;99.90
29501;DHT22;16450;50.288;10.966;2024-03-17T07:10:16;4.40;99.90
29501;DHT22;16450;50.288;10.966;2024-03-17T07:13:18;4.60;99.90
29501;DHT22;16450;50.288;10.966;2024-03-17T07:16:19;4.60;99.90
29501;DHT22;16450;50.288;10.966;2024-03-17T07:19:21;4.70;99.90
29501;DHT22;16450;50.288;10.966;2024-03-17T07:22:22;4.80;99.90
29501;DHT22;16450;50.288;10.966;2024-03-17T07:25:26;4.90;99.90
29501;DHT22;16450;50.288;10.966;2024-03-17T07:28:28;5.00;99.90
29501;DHT22;16450;50.288;10.966;2024-03-17T07:31:28;5.10;99.90
29501;DHT22;16450;50.288;10.966;2024-03-17T07:34:32;5.10;99.90
29501;DHT22;16450;50.288;10.966;2024-03-17T07:37:34;5.20;99.90
29501;DHT22;16450;50.288;10.966;2024-03-17T07:40:35;5.20;99.90
29501;DHT22;16450;50.288;10.966;2024-03-17T07:43:37;5.20;99.90
29501;DHT22;16450;50.288;10.966;2024-03-17T07:46:38;5.20;99.90
29501;DHT22;16450;50.288;10.966;2024-03-17T07:49:39;5.20;99.90
29501;DHT22;16450;50.288;10.966;2024-03-17T07:52:40;5.30;99.90
29501;DHT22;16450;50.288;10.966;2024-03-17T07:55:40;5.20;99.90
29501;DHT22;16450;50.288;10.966;2024-03-17T07:58:42;5.20;99.90
29501;DHT22;16450;50.288;10.966;2024-03-17T08:01:44;5.30;99.90
29501;DHT22;16450;50.288;10.966;2024-03-17T08:04:46;5.40;99.90
29501;DHT22;16450;50.288;10.966;2024-03-17T08:07:47;5.40;99.90
29501;DHT22;16450;50.288;10.966;2024-03-17T08:10:47;5.50;99.90
29501;DHT22;16450;50.288;10.966;2024-03-17T08:13:51;5.50;99.90
29501;DHT22;16450;50.288;10.966;2024-03-17T08:16:53;5.60;99.90
29501;DHT22;16450;50.288;10.966;2024-03-17T08:19:54;5.60;99.90
29501;DHT22;16450;50.288;10.966;2024-03-17T08:22:55;5.70;99.90
29501;DHT22;16450;50.288;10.966;2024-03-17T08:25:58;5.80;99.90
29501;DHT22;16450;50.288;10.966;2024-03-17T08:29:00;5.90;99.90
29501;DHT22;16450;50.288;10.966;2024-03-17T08:32:00;5.90;99.90
29501;DHT22;16450;50.288;10.966;2024-03-17T08:35:01;6.00;99.90
29501;DHT22;16450;50.288;10.966;2024-03-17T08:38:02;6.10;99.90
29501;DHT22;16450;50.288;10.966;2024-03-17T08:41:04;6.20;99.90
29501;DHT22;16450;50.288;10.966;2024-03-17T08:44:06;6.20;99.90
29501;DHT22;16450;50.288;10.966;2024-03-17T08:47:07;6.30;99.90
29501;DHT22;16450;50.288;10.966;2024-03-17T08:50:09;6.40;99.90
29501;DHT22;16450;50.288;10.966;2024-03-17T08:53:13;6.50;99.90
29501;DHT22;16450;50.288;10.966;2024-03-17T08:56:14;6.50;99.90
29501;DHT22;16450;50.288;10.966;2024-03-17T08:59:15;6.60;99.90
29501;DHT22;16450;50.288;10.966;2024-03-17T09:02:16;6.80;99.90
29501;DHT22;16450;50.288;10.966;2024-03-17T09:05:17;6.90;99.90
29501;DHT22;16450;50.288;10.966;2024-03-17T09:08:20;7.10;99.90
29501;DHT22;16450;50.288;10.966;2024-03-17T09:11:21;7.40;99.90
29501;DHT22;16450;50.288;10.966;2024-03-17T09:14:26;7.80;99.90
29501;DHT22;16450;50.288;10.966;2024-03-17T09:17:26;8.30;99.90
29501;DHT22;16450;50.288;10.966;2024-03-17T09:20:27;8.80;99.90
29501;DHT22;16450;50.288;10.966;2024-03-17T09:23:29;9.30;99.90
29501;DHT22;16450;50.288;10.966;2024-03-17T09:26:30;9.70;99.90
29501;DHT22;16450;50.288;10.966;2024-03-17T09:29:31;10.10;99.90
29501;DHT22;16450;50.288;10.966;2024-03-17T09:32:32;10.30;99.90
29501;DHT22;16450;50.288;10.966;2024-03-17T09:35:33;10.30;99.90
29501;DHT22;16450;50.288;10.966;2024-03-17T09:38:35;10.30;99.90
29501;DHT22;16450;50.288;10.966;2024-03-17T09:41:37;10.30;99.90
29501;DHT22;16450;50.288;10.966;2024-03-17T09:44:39;10.10;99.90
29501;DHT22;16450;50.288;10.966;2024-03-17T09:47:40;10.00;99.90
29501;DHT22;16450;50.288;10.966;2024-03-17T09:50:41;9.90;99.90
29501;DHT22;16450;50.288;10.966;2024-03-17T09:53:42;9.90;99.90
29501;DHT22;16450;50.288;10.966;2024-03-17T09:56:44;9.90;99.90
29501;DHT22;16450;50.288;10.966;2024-03-17T09:59:53;9.90;99.90
29501;DHT22;16450;50.288;10.966;2024-03-17T10:02:54;9.90;99.90
29501;DHT22;16450;50.288;10.966;2024-03-17T10:05:59;10.00;99.90
29501;DHT22;16450;50.288;10.966;2024-03-17T10:09:01;10.00;99.90
29501;DHT22;16450;50.288;10.966;2024-03-17T10:12:29;10.20;99.90
29501;DHT22;16450;50.288;10.966;2024-03-17T10:15:30;10.50;99.90
29501;DHT22;16450;50.288;10.966;2024-03-17T10:18:31;10.80;99.90
29501;DHT22;16450;50.288;10.966;2024-03-17T10:21:32;11.00;99.90
29501;DHT22;16450;50.288;10.966;2024-03-17T10:24:33;11.40;99.90
29501;DHT22;16450;50.288;10.966;2024-03-17T10:27:35;11.50;99.90
29501;DHT22;16450;50.288;10.966;2024-03-17T10:30:35;11.70;99.90
29501;DHT22;16450;50.288;10.966;2024-03-17T10:33:37;12.00;99.90
29501;DHT22;16450;50.288;10.966;2024-03-17T10:36:38;12.10;99.90
29501;DHT22;16450;50.288;10.966;2024-03-17T10:39:41;12.20;99.90
29501;DHT22;16450;50.288;10.966;2024-03-17T10:42:42;12.20;99.90
29501;DHT22;16450;50.288;10.966;2024-03-17T10:45:43;12.20;99.90
29501;DHT22;16450;50.288;10.966;2024-03-17T10:48:45;12.20;99.90
29501;DHT22;16450;50.288;10.966;2024-03-17T10:51:47;12.20;99.90
29501;DHT22;16450;50.288;10.966;2024-03-17T10:54:53;12.20;99.90
29501;DHT22;16450;50.288;10.966;2024-03-17T10:57:54;12.20;99.90
29501;DHT22;16450;50.288;10.966;2024-03-17T11:01:00;12.20;99.90
29501;DHT22;16450;50.288;10.966;2024-03-17T11:04:04;12.10;99.90
29501;DHT22;16450;50.288;10.966;2024-03-17T11:07:05;12.10;99.90
29501;DHT22;16450;50.288;10.966;2024-03-17T11:10:09;12.10;99.90
29501;DHT22;16450;50.288;10.966;2024-03-17T11:13:29;12.10;99.90
29501;DHT22;16450;50.288;10.966;2024-03-17T11:16:30;12.20;99.90
29501;DHT22;16450;50.288;10.966;2024-03-17T11:19:31;12.10;99.90
29501;DHT22;16450;50.288;10.966;2024-03-17T11:22:42;12.00;99.90
29501;DHT22;16450;50.288;10.966;2024-03-17T11:25:51;12.00;99.90
29501;DHT22;16450;50.288;10.966;2024-03-17T11:28:52;12.00;99.90
29501;DHT22;16450;50.288;10.966;2024-03-17T11:31:54;11.90;99.90
29501;DHT22;16450;50.288;10.966;2024-03-17T11:35:13;11.90;99.90
29501;DHT22;16450;50.288;10.966;2024-03-17T11:38:52;11.90;99.90
29501;DHT22;16450;50.288;10.966;2024-03-17T11:41:54;11.80;99.90
29501;DHT22;16450;50.288;10.966;2024-03-17T11:45:13;11.80;99.90
29501;DHT22;16450;50.288;10.966;2024-03-17T11:48:16;11.80;99.90
29501;DHT22;16450;50.288;10.966;2024-03-17T11:51:17;11.80;99.90
29501;DHT22;16450;50.288;10.966;2024-03-17T11:54:20;11.80;99.90
29501;DHT22;16450;50.288;10.966;2024-03-17T11:57:26;11.90;99.90
29501;DHT22;16450;50.288;10.966;2024-03-17T12:00:27;11.90;99.90
29501;DHT22;16450;50.288;10.966;2024-03-17T12:03:28;11.90;99.90
29501;DHT22;16450;50.288;10.966;2024-03-17T12:06:29;11.90;99.90
29501;DHT22;16450;50.288;10.966;2024-03-17T12:09:31;11.90;99.90
29501;DHT22;16450;50.288;10.966;2024-03-17T12:12:32;12.00;99.90
29501;DHT22;16450;50.288;10.966;2024-03-17T12:15:36;12.00;99.90
29501;DHT22;16450;50.288;10.966;2024-03-17T12:18:37;12.10;99.90
29501;DHT22;16450;50.288;10.966;2024-03-17T12:21:43;12.10;99.90
29501;DHT22;16450;50.288;10.966;2024-03-17T12:24:45;12.20;99.90
29501;DHT22;16450;50.288;10.966;2024-03-17T12:27:47;12.20;99.90
29501;DHT22;16450;50.288;10.966;2024-03-17T12:30:49;12.30;99.90
29501;DHT22;16450;50.288;10.966;2024-03-17T12:33:51;12.20;99.90
29501;DHT22;16450;50.288;10.966;2024-03-17T12:36:53;12.30;99.90
29501;DHT22;16450;50.288;10.966;2024-03-17T12:39:54;12.30;99.90
29501;DHT22;16450;50.288;10.966;2024-03-17T12:42:55;12.20;99.90
29501;DHT22;16450;50.288;10.966;2024-03-17T12:45:56;12.30;99.90
29501;DHT22;16450;50.288;10.966;2024-03-17T12:49:00;12.20;99.90
29501;DHT22;16450;50.288;10.966;2024-03-17T12:52:02;12.20;99.90
29501;DHT22;16450;50.288;10.966;2024-03-17T12:55:08;12.20;99.90
29501;DHT22;16450;50.288;10.966;2024-03-17T12:58:27;12.30;99.90
29501;DHT22;16450;50.288;10.966;2024-03-17T13:01:46;12.50;99.90
29501;DHT22;16450;50.288;10.966;2024-03-17T13:04:47;12.60;99.90
29501;DHT22;16450;50.288;10.966;2024-03-17T13:07:50;12.70;99.90
29501;DHT22;16450;50.288;10.966;2024-03-17T13:10:51;12.90;99.90
29501;DHT22;16450;50.288;10.966;2024-03-17T13:13:53;13.00;99.90
29501;DHT22;16450;50.288;10.966;2024-03-17T13:16:54;13.20;99.90
29501;DHT22;16450;50.288;10.966;2024-03-17T13:19:55;13.30;99.90
29501;DHT22;16450;50.288;10.966;2024-03-17T13:22:56;13.30;99.90
29501;DHT22;16450;50.288;10.966;2024-03-17T13:25:58;13.40;99.90
29501;DHT22;16450;50.288;10.966;2024-03-17T13:28:59;13.30;99.90
29501;DHT22;16450;50.288;10.966;2024-03-17T13:32:00;13.30;99.90
29501;DHT22;16450;50.288;10.966;2024-03-17T13:35:01;13.40;99.90
29501;DHT22;16450;50.288;10.966;2024-03-17T13:38:03;13.40;99.90
29501;DHT22;16450;50.288;10.966;2024-03-17T13:41:04;13.40;99.90
29501;DHT22;16450;50.288;10.966;2024-03-17T13:44:05;13.50;99.90
29501;DHT22;16450;50.288;10.966;2024-03-17T13:47:07;13.40;99.90
29501;DHT22;16450;50.288;10.966;2024-03-17T13:50:09;13.40;99.90
29501;DHT22;16450;50.288;10.966;2024-03-17T13:53:13;13.40;99.90
29501;DHT22;16450;50.288;10.966;2024-03-17T13:56:14;13.40;99.90
29501;DHT22;16450;50.288;10.966;2024-03-17T13:59:15;13.30;99.90
29501;DHT22;16450;50.288;10.966;2024-03-17T14:02:16;13.30;99.90
29501;DHT22;16450;50.288;10.966;2024-03-17T14:05:19;13.10;99.90
29501;DHT22;16450;50.288;10.966;2024-03-17T14:08:20;13.10;99.90
29501;DHT22;16450;50.288;10.966;2024-03-17T14:11:21;13.00;99.90
29501;DHT22;16450;50.288;10.966;2024-03-17T14:14:23;13.00;99.90
29501;DHT22;16450;50.288;10.966;2024-03-17T14:17:23;12.90;99.90
29501;DHT22;16450;50.288;10.966;2024-03-17T14:20:24;12.90;99.90
29501;DHT22;16450;50.288;10.966;2024-03-17T14:23:25;12.80;99.90
29501;DHT22;16450;50.288;10.966;2024-03-17T14:26:26;12.80;99.90
29501;DHT22;16450;50.288;10.966;2024-03-17T14:29:27;12.80;99.90
29501;DHT22;16450;50.288;10.966;2024-03-17T14:32:28;12.80;99.90
29501;DHT22;16450;50.288;10.966;2024-03-17T14:35:29;12.70;99.90
29501;DHT22;16450;50.288;10.966;2024-03-17T14:38:30;12.70;99.90
29501;DHT22;16450;50.288;10.966;2024-03-17T14:41:31;12.70;99.90
29501;DHT22;16450;50.288;10.966;2024-03-17T14:44:34;12.60;99.90
29501;DHT22;16450;50.288;10.966;2024-03-17T14:47:36;12.60;99.90
29501;DHT22;16450;50.288;10.966;2024-03-17T14:50:37;12.50;99.90
29501;DHT22;16450;50.288;10.966;2024-03-17T14:53:39;12.60;99.90
29501;DHT22;16450;50.288;10.966;2024-03-17T14:56:48;12.50;99.90
29501;DHT22;16450;50.288;10.966;2024-03-17T14:59:49;12.40;99.90
29501;DHT22;16450;50.288;10.966;2024-03-17T15:02:51;12.40;99.90
29501;DHT22;16450;50.288;10.966;2024-03-17T15:05:52;12.40;99.90
29501;DHT22;16450;50.288;10.966;2024-03-17T15:08:53;12.30;99.90
29501;DHT22;16450;50.288;10.966;2024-03-17T15:11:54;12.30;99.90
29501;DHT22;16450;50.288;10.966;2024-03-17T15:14:54;12.30;99.90
29501;DHT22;16450;50.288;10.966;2024-03-17T15:17:55;12.20;99.90
29501;DHT22;16450;50.288;10.966;2024-03-17T15:20:56;12.20;99.90
29501;DHT22;16450;50.288;10.966;2024-03-17T15:23:57;12.10;99.90
29501;DHT22;16450;50.288;10.966;2024-03-17T15:26:59;12.20;99.90
29501;DHT22;16450;50.288;10.966;2024-03-17T15:29:59;12.20;99.90
29501;DHT22;16450;50.288;10.966;2024-03-17T15:33:00;12.10;99.90
29501;DHT22;16450;50.288;10.966;2024-03-17T15:36:02;12.10;99.90
29501;DHT22;16450;50.288;10.966;2024-03-17T15:39:04;12.10;99.90
29501;DHT22;16450;50.288;10.966;2024-03-17T15:42:06;12.10;99.90
29501;DHT22;16450;50.288;10.966;2024-03-17T15:45:08;12.10;99.90
29501;DHT22;16450;50.288;10.966;2024-03-17T15:48:09;12.10;99.90
29501;DHT22;16450;50.288;10.966;2024-03-17T15:51:10;12.10;99.90
29501;DHT22;16450;50.288;10.966;2024-03-17T15:54:11;12.10;99.90
29501;DHT22;16450;50.288;10.966;2024-03-17T15:57:12;12.10;99.90
29501;DHT22;16450;50.288;10.966;2024-03-17T16:00:13;12.00;99.90
29501;DHT22;16450;50.288;10.966;2024-03-17T16:03:14;12.00;99.90
29501;DHT22;16450;50.288;10.966;2024-03-17T16:06:19;12.00;99.90
29501;DHT22;16450;50.288;10.966;2024-03-17T16:09:21;12.00;99.90
29501;DHT22;16450;50.288;10.966;2024-03-17T16:12:23;12.00;99.90
29501;DHT22;16450;50.288;10.966;2024-03-17T16:15:24;12.00;99.90
29501;DHT22;16450;50.288;10.966;2024-03-17T16:18:25;12.00;99.90
29501;DHT22;16450;50.288;10.966;2024-03-17T16:21:29;11.90;99.90
29501;DHT22;16450;50.288;10.966;2024-03-17T16:24:35;12.00;99.90
29501;DHT22;16450;50.288;10.966;2024-03-17T16:27:36;11.90;99.90
29501;DHT22;16450;50.288;10.966;2024-03-17T16:30:37;11.80;99.90
29501;DHT22;16450;50.288;10.966;2024-03-17T16:33:39;11.80;99.90
29501;DHT22;16450;50.288;10.966;2024-03-17T16:36:40;11.80;99.90
29501;DHT22;16450;50.288;10.966;2024-03-17T16:39:41;11.70;99.90
29501;DHT22;16450;50.288;10.966;2024-03-17T16:42:42;11.70;99.90
29501;DHT22;16450;50.288;10.966;2024-03-17T16:45:51;11.70;99.90
29501;DHT22;16450;50.288;10.966;2024-03-17T16:48:57;11.60;99.90
29501;DHT22;16450;50.288;10.966;2024-03-17T16:51:58;11.60;99.90
29501;DHT22;16450;50.288;10.966;2024-03-17T16:54:59;11.50;99.90
29501;DHT22;16450;50.288;10.966;2024-03-17T16:58:00;11.50;99.90
29501;DHT22;16450;50.288;10.966;2024-03-17T17:01:01;11.40;99.90
29501;DHT22;16450;50.288;10.966;2024-03-17T17:04:02;11.40;99.90
29501;DHT22;16450;50.288;10.966;2024-03-17T17:07:03;11.30;99.90
29501;DHT22;16450;50.288;10.966;2024-03-17T17:10:05;11.30;99.90
29501;DHT22;16450;50.288;10.966;2024-03-17T17:13:06;11.20;99.90
29501;DHT22;16450;50.288;10.966;2024-03-17T17:16:07;11.10;99.90
29501;DHT22;16450;50.288;10.966;2024-03-17T17:19:09;11.00;99.90
29501;DHT22;16450;50.288;10.966;2024-03-17T17:22:13;10.90;99.90
29501;DHT22;16450;50.288;10.966;2024-03-17T17:25:15;10.80;99.90
29501;DHT22;16450;50.288;10.966;2024-03-17T17:28:16;10.70;99.90
29501;DHT22;16450;50.288;10.966;2024-03-17T17:31:17;10.70;99.90
29501;DHT22;16450;50.288;10.966;2024-03-17T17:34:18;10.60;99.90
29501;DHT22;16450;50.288;10.966;2024-03-17T17:37:19;10.50;99.90
29501;DHT22;16450;50.288;10.966;2024-03-17T17:40:19;10.40;99.90
29501;DHT22;16450;50.288;10.966;2024-03-17T17:43:20;10.30;99.90
29501;DHT22;16450;50.288;10.966;2024-03-17T17:46:22;10.20;99.90
29501;DHT22;16450;50.288;10.966;2024-03-17T17:49:26;10.10;99.90
29501;DHT22;16450;50.288;10.966;2024-03-17T17:52:26;10.10;99.90
29501;DHT22;16450;50.288;10.966;2024-03-17T17:55:28;9.90;99.90
29501;DHT22;16450;50.288;10.966;2024-03-17T17:58:29;9.90;99.90
29501;DHT22;16450;50.288;10.966;2024-03-17T18:01:30;9.80;99.90
29501;DHT22;16450;50.288;10.966;2024-03-17T18:04:31;9.70;99.90
29501;DHT22;16450;50.288;10.966;2024-03-17T18:07:32;9.70;99.90
29501;DHT22;16450;50.288;10.966;2024-03-17T18:10:39;9.60;99.90
29501;DHT22;16450;50.288;10.966;2024-03-17T18:13:40;9.50;99.90
29501;DHT22;16450;50.288;10.966;2024-03-17T18:16:41;9.50;99.90
29501;DHT22;16450;50.288;10.966;2024-03-17T18:19:41;9.40;99.90
29501;DHT22;16450;50.288;10.966;2024-03-17T18:22:43;9.30;99.90
29501;DHT22;16450;50.288;10.966;2024-03-17T18:25:44;9.20;99.90
29501;DHT22;16450;50.288;10.966;2024-03-17T18:28:47;9.20;99.90
29501;DHT22;16450;50.288;10.966;2024-03-17T18:31:48;9.20;99.90
29501;DHT22;16450;50.288;10.966;2024-03-17T18:34:49;9.10;99.90
29501;DHT22;16450;50.288;10.966;2024-03-17T18:37:51;9.00;99.90
29501;DHT22;16450;50.288;10.966;2024-03-17T18:44:05;8.90;99.90
29501;DHT22;16450;50.288;10.966;2024-03-17T18:47:06;8.80;99.90
29501;DHT22;16450;50.288;10.966;2024-03-17T18:50:07;8.80;99.90
29501;DHT22;16450;50.288;10.966;2024-03-17T18:53:08;8.80;99.90
29501;DHT22;16450;50.288;10.966;2024-03-17T18:56:09;8.70;99.90
29501;DHT22;16450;50.288;10.966;2024-03-17T18:59:11;8.70;99.90
29501;DHT22;16450;50.288;10.966;2024-03-17T19:02:13;8.60;99.90
29501;DHT22;16450;50.288;10.966;2024-03-17T19:05:14;8.60;99.90